sensor_id;sensor_type;location;lat;lon;timestamp;P1;durP1;ratioP1;P2;durP2;ratioP2
1154;SDS011;566;48.414;9.118;2023-02-17T00:03:50;9.20;;;3.40;;
1154;SDS011;566;48.414;9.118;2023-02-17T00:06:18;8.45;;;3.60;;
1154;SDS011;566;48.414;9.118;2023-02-17T00:08:46;8.95;;;3.47;;
1154;SDS011;566;48.414;9.118;2023-02-17T00:11:15;10.68;;;3.45;;
1154;SDS011;566;48.414;9.118;2023-02-17T00:13:41;12.60;;;3.25;;
1154;SDS011;566;48.414;9.118;2023-02-17T00:16:08;12.30;;;3.58;;
1154;SDS011;566;48.414;9.118;2023-02-17T00:18:36;10.05;;;3.80;;
1154;SDS011;566;48.414;9.118;2023-02-17T00:21:15;10.32;;;3.50;;
1154;SDS011;566;48.414;9.118;2023-02-17T00:23:42;10.20;;;3.40;;
1154;SDS011;566;48.414;9.118;2023-02-17T00:26:09;9.73;;;3.75;;
1154;SDS011;566;48.414;9.118;2023-02-17T00:28:35;11.27;;;3.45;;
1154;SDS011;566;48.414;9.118;2023-02-17T00:31:05;9.48;;;3.75;;
1154;SDS011;566;48.414;9.118;2023-02-17T00:33:37;12.32;;;3.95;;
1154;SDS011;566;48.414;9.118;2023-02-17T00:36:07;7.70;;;3.60;;
1154;SDS011;566;48.414;9.118;2023-02-17T00:38:35;9.48;;;4.15;;
1154;SDS011;566;48.414;9.118;2023-02-17T00:41:01;10.32;;;3.63;;
1154;SDS011;566;48.414;9.118;2023-02-17T00:43:26;15.88;;;3.72;;
1154;SDS011;566;48.414;9.118;2023-02-17T00:45:52;10.73;;;3.90;;
1154;SDS011;566;48.414;9.118;2023-02-17T00:48:18;12.35;;;4.40;;
1154;SDS011;566;48.414;9.118;2023-02-17T00:50:44;10.38;;;3.85;;
1154;SDS011;566;48.414;9.118;2023-02-17T00:53:10;7.93;;;3.72;;
1154;SDS011;566;48.414;9.118;2023-02-17T00:55:36;10.20;;;3.92;;
1154;SDS011;566;48.414;9.118;2023-02-17T00:58:01;14.57;;;3.95;;
1154;SDS011;566;48.414;9.118;2023-02-17T01:00:27;11.60;;;3.58;;
1154;SDS011;566;48.414;9.118;2023-02-17T01:02:52;11.85;;;3.72;;
1154;SDS011;566;48.414;9.118;2023-02-17T01:05:18;13.13;;;3.78;;
1154;SDS011;566;48.414;9.118;2023-02-17T01:07:44;13.52;;;3.88;;
1154;SDS011;566;48.414;9.118;2023-02-17T01:10:09;10.30;;;3.80;;
1154;SDS011;566;48.414;9.118;2023-02-17T01:12:35;12.38;;;4.15;;
1154;SDS011;566;48.414;9.118;2023-02-17T01:15:02;11.93;;;3.60;;
1154;SDS011;566;48.414;9.118;2023-02-17T01:17:27;12.75;;;3.95;;
1154;SDS011;566;48.414;9.118;2023-02-17T01:19:53;10.65;;;3.60;;
1154;SDS011;566;48.414;9.118;2023-02-17T01:22:19;10.40;;;4.15;;
1154;SDS011;566;48.414;9.118;2023-02-17T01:24:44;12.32;;;3.78;;
1154;SDS011;566;48.414;9.118;2023-02-17T01:27:10;16.02;;;4.35;;
1154;SDS011;566;48.414;9.118;2023-02-17T01:29:35;10.40;;;3.50;;
1154;SDS011;566;48.414;9.118;2023-02-17T01:32:01;10.43;;;3.85;;
1154;SDS011;566;48.414;9.118;2023-02-17T01:34:26;18.00;;;4.00;;
1154;SDS011;566;48.414;9.118;2023-02-17T01:36:52;19.05;;;4.55;;
1154;SDS011;566;48.414;9.118;2023-02-17T01:39:18;10.07;;;3.67;;
1154;SDS011;566;48.414;9.118;2023-02-17T01:41:43;9.07;;;4.03;;
1154;SDS011;566;48.414;9.118;2023-02-17T01:44:11;11.32;;;5.13;;
1154;SDS011;566;48.414;9.118;2023-02-17T01:46:45;10.60;;;4.10;;
1154;SDS011;566;48.414;9.118;2023-02-17T01:49:34;11.32;;;3.80;;
1154;SDS011;566;48.414;9.118;2023-02-17T01:52:13;12.02;;;3.90;;
1154;SDS011;566;48.414;9.118;2023-02-17T01:54:53;11.55;;;3.85;;
1154;SDS011;566;48.414;9.118;2023-02-17T01:57:24;14.65;;;4.05;;
1154;SDS011;566;48.414;9.118;2023-02-17T01:59:54;13.32;;;4.03;;
1154;SDS011;566;48.414;9.118;2023-02-17T02:02:20;9.88;;;4.10;;
1154;SDS011;566;48.414;9.118;2023-02-17T02:04:47;12.35;;;4.20;;
1154;SDS011;566;48.414;9.118;2023-02-17T02:07:17;10.65;;;4.00;;
1154;SDS011;566;48.414;9.118;2023-02-17T02:10:03;8.45;;;3.35;;
1154;SDS011;566;48.414;9.118;2023-02-17T02:12:32;9.60;;;4.43;;
1154;SDS011;566;48.414;9.118;2023-02-17T02:15:00;12.45;;;3.90;;
1154;SDS011;566;48.414;9.118;2023-02-17T02:34:46;10.55;;;4.47;;
1154;SDS011;566;48.414;9.118;2023-02-17T02:37:19;8.85;;;3.70;;
1154;SDS011;566;48.414;9.118;2023-02-17T02:39:50;10.98;;;4.32;;
1154;SDS011;566;48.414;9.118;2023-02-17T02:42:19;12.18;;;4.30;;
1154;SDS011;566;48.414;9.118;2023-02-17T02:44:48;9.10;;;3.90;;
1154;SDS011;566;48.414;9.118;2023-02-17T02:49:59;9.93;;;3.38;;
1154;SDS011;566;48.414;9.118;2023-02-17T02:52:26;11.25;;;3.97;;
1154;SDS011;566;48.414;9.118;2023-02-17T02:55:14;10.88;;;3.65;;
1154;SDS011;566;48.414;9.118;2023-02-17T02:58:05;12.20;;;4.45;;
1154;SDS011;566;48.414;9.118;2023-02-17T03:00:56;10.85;;;3.80;;
1154;SDS011;566;48.414;9.118;2023-02-17T03:03:29;13.98;;;4.20;;
1154;SDS011;566;48.414;9.118;2023-02-17T03:06:20;15.38;;;4.32;;
1154;SDS011;566;48.414;9.118;2023-02-17T03:08:52;12.37;;;3.70;;
1154;SDS011;566;48.414;9.118;2023-02-17T03:11:23;9.30;;;3.67;;
1154;SDS011;566;48.414;9.118;2023-02-17T03:13:59;8.23;;;3.33;;
1154;SDS011;566;48.414;9.118;2023-02-17T03:16:29;8.82;;;4.32;;
1154;SDS011;566;48.414;9.118;2023-02-17T03:18:55;9.95;;;4.38;;
1154;SDS011;566;48.414;9.118;2023-02-17T03:21:21;10.45;;;3.60;;
1154;SDS011;566;48.414;9.118;2023-02-17T03:23:47;10.80;;;4.18;;
1154;SDS011;566;48.414;9.118;2023-02-17T03:26:13;9.05;;;3.70;;
1154;SDS011;566;48.414;9.118;2023-02-17T03:28:41;10.02;;;3.45;;
1154;SDS011;566;48.414;9.118;2023-02-17T03:31:07;8.40;;;4.15;;
1154;SDS011;566;48.414;9.118;2023-02-17T03:33:32;11.77;;;4.55;;
1154;SDS011;566;48.414;9.118;2023-02-17T03:35:58;8.55;;;3.45;;
1154;SDS011;566;48.414;9.118;2023-02-17T03:38:23;7.70;;;3.75;;
1154;SDS011;566;48.414;9.118;2023-02-17T03:40:49;10.25;;;3.70;;
1154;SDS011;566;48.414;9.118;2023-02-17T03:43:17;9.85;;;3.28;;
1154;SDS011;566;48.414;9.118;2023-02-17T03:45:43;8.10;;;3.50;;
1154;SDS011;566;48.414;9.118;2023-02-17T03:48:08;6.15;;;3.40;;
1154;SDS011;566;48.414;9.118;2023-02-17T03:50:34;10.73;;;3.63;;
1154;SDS011;566;48.414;9.118;2023-02-17T03:52:59;6.90;;;2.90;;
1154;SDS011;566;48.414;9.118;2023-02-17T03:55:25;8.68;;;3.33;;
1154;SDS011;566;48.414;9.118;2023-02-17T03:57:51;6.65;;;3.25;;
1154;SDS011;566;48.414;9.118;2023-02-17T04:00:17;12.65;;;3.25;;
1154;SDS011;566;48.414;9.118;2023-02-17T04:02:42;11.13;;;3.95;;
1154;SDS011;566;48.414;9.118;2023-02-17T04:05:08;10.65;;;4.30;;
1154;SDS011;566;48.414;9.118;2023-02-17T04:07:33;9.65;;;3.60;;
1154;SDS011;566;48.414;9.118;2023-02-17T04:09:59;12.93;;;4.15;;
1154;SDS011;566;48.414;9.118;2023-02-17T04:12:25;7.60;;;3.58;;
1154;SDS011;566;48.414;9.118;2023-02-17T04:14:50;9.50;;;3.97;;
1154;SDS011;566;48.414;9.118;2023-02-17T04:17:16;10.13;;;4.55;;
1154;SDS011;566;48.414;9.118;2023-02-17T04:19:41;9.93;;;4.32;;
1154;SDS011;566;48.414;9.118;2023-02-17T04:22:07;9.65;;;4.07;;
1154;SDS011;566;48.414;9.118;2023-02-17T04:24:33;10.85;;;3.67;;
1154;SDS011;566;48.414;9.118;2023-02-17T04:27:03;9.05;;;4.05;;
1154;SDS011;566;48.414;9.118;2023-02-17T04:29:30;10.32;;;4.30;;
1154;SDS011;566;48.414;9.118;2023-02-17T04:31:56;10.02;;;4.47;;
1154;SDS011;566;48.414;9.118;2023-02-17T04:34:22;13.75;;;4.30;;
1154;SDS011;566;48.414;9.118;2023-02-17T04:36:47;9.43;;;4.25;;
1154;SDS011;566;48.414;9.118;2023-02-17T04:39:14;7.68;;;3.85;;
1154;SDS011;566;48.414;9.118;2023-02-17T04:41:45;8.35;;;3.42;;
1154;SDS011;566;48.414;9.118;2023-02-17T04:44:11;13.55;;;3.55;;
1154;SDS011;566;48.414;9.118;2023-02-17T04:46:36;8.68;;;3.60;;
1154;SDS011;566;48.414;9.118;2023-02-17T04:49:02;10.07;;;4.10;;
1154;SDS011;566;48.414;9.118;2023-02-17T04:51:27;9.20;;;3.67;;
1154;SDS011;566;48.414;9.118;2023-02-17T04:53:53;10.98;;;3.40;;
1154;SDS011;566;48.414;9.118;2023-02-17T04:56:19;8.20;;;3.40;;
1154;SDS011;566;48.414;9.118;2023-02-17T04:58:44;8.40;;;3.30;;
1154;SDS011;566;48.414;9.118;2023-02-17T05:01:10;8.70;;;3.60;;
1154;SDS011;566;48.414;9.118;2023-02-17T05:03:35;6.80;;;3.33;;
1154;SDS011;566;48.414;9.118;2023-02-17T05:06:01;8.02;;;3.60;;
1154;SDS011;566;48.414;9.118;2023-02-17T05:08:26;10.40;;;3.67;;
1154;SDS011;566;48.414;9.118;2023-02-17T05:10:52;6.72;;;2.97;;
1154;SDS011;566;48.414;9.118;2023-02-17T05:13:18;8.18;;;3.17;;
1154;SDS011;566;48.414;9.118;2023-02-17T05:15:43;9.65;;;2.85;;
1154;SDS011;566;48.414;9.118;2023-02-17T05:18:10;9.48;;;3.22;;
1154;SDS011;566;48.414;9.118;2023-02-17T05:20:36;11.60;;;3.00;;
1154;SDS011;566;48.414;9.118;2023-02-17T05:23:01;5.85;;;2.58;;
1154;SDS011;566;48.414;9.118;2023-02-17T05:25:27;12.82;;;3.50;;
1154;SDS011;566;48.414;9.118;2023-02-17T05:27:52;8.98;;;2.72;;
1154;SDS011;566;48.414;9.118;2023-02-17T05:30:18;8.73;;;3.17;;
1154;SDS011;566;48.414;9.118;2023-02-17T05:32:44;8.93;;;2.47;;
1154;SDS011;566;48.414;9.118;2023-02-17T05:35:09;6.68;;;2.40;;
1154;SDS011;566;48.414;9.118;2023-02-17T05:37:35;6.65;;;2.30;;
1154;SDS011;566;48.414;9.118;2023-02-17T05:40:01;6.32;;;2.78;;
1154;SDS011;566;48.414;9.118;2023-02-17T05:42:27;6.47;;;2.92;;
1154;SDS011;566;48.414;9.118;2023-02-17T05:44:55;6.75;;;2.60;;
1154;SDS011;566;48.414;9.118;2023-02-17T05:47:21;6.90;;;2.15;;
1154;SDS011;566;48.414;9.118;2023-02-17T05:49:47;8.50;;;2.50;;
1154;SDS011;566;48.414;9.118;2023-02-17T05:52:15;6.78;;;2.40;;
1154;SDS011;566;48.414;9.118;2023-02-17T05:54:42;6.80;;;2.42;;
1154;SDS011;566;48.414;9.118;2023-02-17T05:57:13;5.93;;;2.60;;
1154;SDS011;566;48.414;9.118;2023-02-17T05:59:42;6.68;;;2.70;;
1154;SDS011;566;48.414;9.118;2023-02-17T06:02:07;8.75;;;2.50;;
1154;SDS011;566;48.414;9.118;2023-02-17T06:04:36;8.45;;;2.65;;
1154;SDS011;566;48.414;9.118;2023-02-17T06:07:02;7.97;;;2.63;;
1154;SDS011;566;48.414;9.118;2023-02-17T06:09:27;8.63;;;2.95;;
1154;SDS011;566;48.414;9.118;2023-02-17T06:11:53;7.88;;;2.60;;
1154;SDS011;566;48.414;9.118;2023-02-17T06:14:18;6.53;;;2.55;;
1154;SDS011;566;48.414;9.118;2023-02-17T06:16:44;6.30;;;2.45;;
1154;SDS011;566;48.414;9.118;2023-02-17T06:19:12;5.70;;;2.53;;
1154;SDS011;566;48.414;9.118;2023-02-17T06:21:38;6.22;;;2.55;;
1154;SDS011;566;48.414;9.118;2023-02-17T06:24:03;6.72;;;2.75;;
1154;SDS011;566;48.414;9.118;2023-02-17T06:26:29;9.02;;;3.08;;
1154;SDS011;566;48.414;9.118;2023-02-17T06:28:55;8.15;;;2.72;;
1154;SDS011;566;48.414;9.118;2023-02-17T06:31:20;10.07;;;3.20;;
1154;SDS011;566;48.414;9.118;2023-02-17T06:33:46;7.05;;;2.80;;
1154;SDS011;566;48.414;9.118;2023-02-17T06:36:11;10.40;;;2.88;;
1154;SDS011;566;48.414;9.118;2023-02-17T06:38:38;7.53;;;2.88;;
1154;SDS011;566;48.414;9.118;2023-02-17T06:41:04;8.10;;;3.08;;
1154;SDS011;566;48.414;9.118;2023-02-17T06:43:29;6.10;;;2.38;;
1154;SDS011;566;48.414;9.118;2023-02-17T06:45:55;5.70;;;2.80;;
1154;SDS011;566;48.414;9.118;2023-02-17T06:48:23;6.53;;;2.63;;
1154;SDS011;566;48.414;9.118;2023-02-17T06:50:49;5.00;;;2.40;;
1154;SDS011;566;48.414;9.118;2023-02-17T06:53:14;6.00;;;3.28;;
1154;SDS011;566;48.414;9.118;2023-02-17T06:55:42;7.53;;;3.13;;
1154;SDS011;566;48.414;9.118;2023-02-17T06:58:08;11.30;;;3.65;;
1154;SDS011;566;48.414;9.118;2023-02-17T07:00:34;7.47;;;3.00;;
1154;SDS011;566;48.414;9.118;2023-02-17T07:02:59;7.75;;;2.80;;
1154;SDS011;566;48.414;9.118;2023-02-17T07:05:25;9.73;;;3.67;;
1154;SDS011;566;48.414;9.118;2023-02-17T07:07:51;6.88;;;3.35;;
1154;SDS011;566;48.414;9.118;2023-02-17T07:10:17;6.93;;;3.08;;
1154;SDS011;566;48.414;9.118;2023-02-17T07:12:43;7.85;;;3.25;;
1154;SDS011;566;48.414;9.118;2023-02-17T07:15:09;8.13;;;3.50;;
1154;SDS011;566;48.414;9.118;2023-02-17T07:17:34;9.07;;;2.70;;
1154;SDS011;566;48.414;9.118;2023-02-17T07:20:00;6.80;;;3.28;;
1154;SDS011;566;48.414;9.118;2023-02-17T07:22:25;5.72;;;3.35;;
1154;SDS011;566;48.414;9.118;2023-02-17T07:24:54;10.50;;;4.80;;
1154;SDS011;566;48.414;9.118;2023-02-17T07:27:19;5.50;;;3.00;;
1154;SDS011;566;48.414;9.118;2023-02-17T07:29:45;8.02;;;3.10;;
1154;SDS011;566;48.414;9.118;2023-02-17T07:32:10;9.82;;;3.53;;
1154;SDS011;566;48.414;9.118;2023-02-17T07:34:39;6.57;;;3.22;;
1154;SDS011;566;48.414;9.118;2023-02-17T07:37:05;5.03;;;3.00;;
1154;SDS011;566;48.414;9.118;2023-02-17T07:39:32;8.75;;;3.67;;
1154;SDS011;566;48.414;9.118;2023-02-17T07:41:58;11.05;;;3.15;;
1154;SDS011;566;48.414;9.118;2023-02-17T07:44:25;9.20;;;3.75;;
1154;SDS011;566;48.414;9.118;2023-02-17T07:46:53;5.93;;;3.25;;
1154;SDS011;566;48.414;9.118;2023-02-17T07:49:19;9.48;;;3.33;;
1154;SDS011;566;48.414;9.118;2023-02-17T07:51:45;9.13;;;3.80;;
1154;SDS011;566;48.414;9.118;2023-02-17T07:54:10;6.75;;;3.58;;
1154;SDS011;566;48.414;9.118;2023-02-17T07:56:37;7.63;;;3.30;;
1154;SDS011;566;48.414;9.118;2023-02-17T07:59:03;9.27;;;3.40;;
1154;SDS011;566;48.414;9.118;2023-02-17T08:01:32;9.07;;;3.10;;
1154;SDS011;566;48.414;9.118;2023-02-17T08:03:58;6.70;;;3.03;;
1154;SDS011;566;48.414;9.118;2023-02-17T08:06:24;7.38;;;3.47;;
1154;SDS011;566;48.414;9.118;2023-02-17T08:08:50;9.25;;;3.70;;
1154;SDS011;566;48.414;9.118;2023-02-17T08:11:36;10.10;;;3.28;;
1154;SDS011;566;48.414;9.118;2023-02-17T08:14:21;8.95;;;3.50;;
1154;SDS011;566;48.414;9.118;2023-02-17T08:16:48;6.45;;;3.25;;
1154;SDS011;566;48.414;9.118;2023-02-17T08:19:15;7.75;;;3.13;;
1154;SDS011;566;48.414;9.118;2023-02-17T08:21:41;8.13;;;3.17;;
1154;SDS011;566;48.414;9.118;2023-02-17T08:24:07;8.27;;;3.08;;
1154;SDS011;566;48.414;9.118;2023-02-17T08:26:32;7.55;;;3.30;;
1154;SDS011;566;48.414;9.118;2023-02-17T08:28:58;7.05;;;3.25;;
1154;SDS011;566;48.414;9.118;2023-02-17T08:31:27;11.52;;;3.15;;
1154;SDS011;566;48.414;9.118;2023-02-17T08:33:55;10.48;;;3.38;;
1154;SDS011;566;48.414;9.118;2023-02-17T08:36:21;9.15;;;4.13;;
1154;SDS011;566;48.414;9.118;2023-02-17T08:38:48;10.13;;;3.63;;
1154;SDS011;566;48.414;9.118;2023-02-17T08:41:17;7.05;;;2.83;;
1154;SDS011;566;48.414;9.118;2023-02-17T08:43:43;7.18;;;3.47;;
1154;SDS011;566;48.414;9.118;2023-02-17T08:46:09;8.00;;;3.33;;
1154;SDS011;566;48.414;9.118;2023-02-17T08:48:35;7.88;;;3.15;;
1154;SDS011;566;48.414;9.118;2023-02-17T08:51:01;8.02;;;2.90;;
1154;SDS011;566;48.414;9.118;2023-02-17T08:53:28;10.52;;;3.20;;
1154;SDS011;566;48.414;9.118;2023-02-17T08:55:54;6.78;;;3.05;;
1154;SDS011;566;48.414;9.118;2023-02-17T08:58:19;6.65;;;2.78;;
1154;SDS011;566;48.414;9.118;2023-02-17T09:00:46;7.15;;;2.78;;
1154;SDS011;566;48.414;9.118;2023-02-17T09:03:11;6.05;;;2.75;;
1154;SDS011;566;48.414;9.118;2023-02-17T09:05:37;6.00;;;2.65;;
1154;SDS011;566;48.414;9.118;2023-02-17T09:08:03;6.57;;;2.67;;
1154;SDS011;566;48.414;9.118;2023-02-17T09:10:29;6.57;;;2.42;;
1154;SDS011;566;48.414;9.118;2023-02-17T09:12:55;10.57;;;2.78;;
1154;SDS011;566;48.414;9.118;2023-02-17T09:15:21;5.45;;;2.47;;
1154;SDS011;566;48.414;9.118;2023-02-17T09:17:46;6.00;;;2.47;;
1154;SDS011;566;48.414;9.118;2023-02-17T09:20:12;5.95;;;2.90;;
1154;SDS011;566;48.414;9.118;2023-02-17T09:22:40;7.05;;;2.40;;
1154;SDS011;566;48.414;9.118;2023-02-17T09:25:06;7.28;;;2.60;;
1154;SDS011;566;48.414;9.118;2023-02-17T09:27:32;6.82;;;2.67;;
1154;SDS011;566;48.414;9.118;2023-02-17T09:29:57;6.32;;;2.58;;
1154;SDS011;566;48.414;9.118;2023-02-17T09:32:23;6.20;;;2.00;;
1154;SDS011;566;48.414;9.118;2023-02-17T09:34:51;6.90;;;2.55;;
1154;SDS011;566;48.414;9.118;2023-02-17T09:37:18;5.13;;;2.55;;
1154;SDS011;566;48.414;9.118;2023-02-17T09:39:44;6.93;;;2.42;;
1154;SDS011;566;48.414;9.118;2023-02-17T09:42:32;6.38;;;2.50;;
1154;SDS011;566;48.414;9.118;2023-02-17T09:45:00;7.05;;;2.70;;
1154;SDS011;566;48.414;9.118;2023-02-17T09:47:36;8.90;;;3.28;;
1154;SDS011;566;48.414;9.118;2023-02-17T09:53:03;5.85;;;2.72;;
1154;SDS011;566;48.414;9.118;2023-02-17T09:55:36;6.80;;;3.05;;
1154;SDS011;566;48.414;9.118;2023-02-17T10:00:43;8.07;;;3.30;;
1154;SDS011;566;48.414;9.118;2023-02-17T10:03:19;8.57;;;3.30;;
1154;SDS011;566;48.414;9.118;2023-02-17T10:08:48;8.10;;;3.10;;
1154;SDS011;566;48.414;9.118;2023-02-17T10:13:50;9.73;;;3.43;;
1154;SDS011;566;48.414;9.118;2023-02-17T10:16:20;7.20;;;3.45;;
1154;SDS011;566;48.414;9.118;2023-02-17T10:19:03;6.72;;;3.40;;
1154;SDS011;566;48.414;9.118;2023-02-17T10:21:41;7.32;;;3.42;;
1154;SDS011;566;48.414;9.118;2023-02-17T10:24:12;6.82;;;3.08;;
1154;SDS011;566;48.414;9.118;2023-02-17T10:26:45;7.15;;;3.45;;
1154;SDS011;566;48.414;9.118;2023-02-17T10:32:20;8.15;;;3.75;;
1154;SDS011;566;48.414;9.118;2023-02-17T10:37:44;6.55;;;3.53;;
1154;SDS011;566;48.414;9.118;2023-02-17T10:42:44;8.95;;;4.07;;
1154;SDS011;566;48.414;9.118;2023-02-17T10:48:00;8.38;;;4.00;;
1154;SDS011;566;48.414;9.118;2023-02-17T10:50:28;6.88;;;3.38;;
1154;SDS011;566;48.414;9.118;2023-02-17T10:52:54;6.90;;;3.33;;
1154;SDS011;566;48.414;9.118;2023-02-17T10:55:24;9.05;;;4.10;;
1154;SDS011;566;48.414;9.118;2023-02-17T10:58:02;8.88;;;3.65;;
1154;SDS011;566;48.414;9.118;2023-02-17T11:00:34;8.50;;;3.58;;
1154;SDS011;566;48.414;9.118;2023-02-17T11:03:00;5.20;;;2.90;;
1154;SDS011;566;48.414;9.118;2023-02-17T11:05:27;6.93;;;2.85;;
1154;SDS011;566;48.414;9.118;2023-02-17T11:08:02;6.70;;;2.53;;
1154;SDS011;566;48.414;9.118;2023-02-17T11:10:37;7.22;;;2.88;;
1154;SDS011;566;48.414;9.118;2023-02-17T11:16:01;7.15;;;2.20;;
1154;SDS011;566;48.414;9.118;2023-02-17T11:18:29;5.65;;;2.53;;
1154;SDS011;566;48.414;9.118;2023-02-17T11:21:01;5.30;;;1.95;;
1154;SDS011;566;48.414;9.118;2023-02-17T11:23:29;5.45;;;1.80;;
1154;SDS011;566;48.414;9.118;2023-02-17T11:25:56;5.22;;;2.10;;
1154;SDS011;566;48.414;9.118;2023-02-17T11:28:29;5.13;;;2.17;;
1154;SDS011;566;48.414;9.118;2023-02-17T11:30:58;4.75;;;1.88;;
1154;SDS011;566;48.414;9.118;2023-02-17T11:33:34;6.72;;;2.17;;
1154;SDS011;566;48.414;9.118;2023-02-17T11:36:02;9.30;;;2.53;;
1154;SDS011;566;48.414;9.118;2023-02-17T11:38:32;5.25;;;2.05;;
1154;SDS011;566;48.414;9.118;2023-02-17T11:41:07;4.75;;;1.80;;
1154;SDS011;566;48.414;9.118;2023-02-17T11:43:33;4.95;;;1.75;;
1154;SDS011;566;48.414;9.118;2023-02-17T11:48:56;7.20;;;1.60;;
1154;SDS011;566;48.414;9.118;2023-02-17T12:00:12;4.25;;;1.75;;
1154;SDS011;566;48.414;9.118;2023-02-17T12:02:55;4.57;;;2.22;;
1154;SDS011;566;48.414;9.118;2023-02-17T12:11:31;6.00;;;1.90;;
1154;SDS011;566;48.414;9.118;2023-02-17T12:14:28;4.70;;;2.08;;
1154;SDS011;566;48.414;9.118;2023-02-17T12:23:08;4.13;;;2.00;;
1154;SDS011;566;48.414;9.118;2023-02-17T12:25:58;9.80;;;4.97;;
1154;SDS011;566;48.414;9.118;2023-02-17T12:34:49;42.17;;;32.80;;
1154;SDS011;566;48.414;9.118;2023-02-17T12:36:58;19.85;;;15.85;;
1154;SDS011;566;48.414;9.118;2023-02-17T12:42:16;6.18;;;2.80;;
1154;SDS011;566;48.414;9.118;2023-02-17T12:44:51;4.53;;;2.25;;
1154;SDS011;566;48.414;9.118;2023-02-17T12:47:28;4.55;;;1.77;;
1154;SDS011;566;48.414;9.118;2023-02-17T12:49:56;3.90;;;1.45;;
1154;SDS011;566;48.414;9.118;2023-02-17T12:52:45;5.75;;;3.72;;
1154;SDS011;566;48.414;9.118;2023-02-17T12:55:19;16.10;;;13.70;;
1154;SDS011;566;48.414;9.118;2023-02-17T12:57:52;7.47;;;4.78;;
1154;SDS011;566;48.414;9.118;2023-02-17T13:00:38;4.28;;;1.83;;
1154;SDS011;566;48.414;9.118;2023-02-17T13:03:12;3.42;;;1.80;;
1154;SDS011;566;48.414;9.118;2023-02-17T13:08:42;3.50;;;1.65;;
1154;SDS011;566;48.414;9.118;2023-02-17T13:11:25;5.25;;;1.50;;
1154;SDS011;566;48.414;9.118;2023-02-17T13:13:52;5.53;;;1.80;;
1154;SDS011;566;48.414;9.118;2023-02-17T13:16:17;3.95;;;1.30;;
1154;SDS011;566;48.414;9.118;2023-02-17T13:18:44;4.10;;;1.77;;
1154;SDS011;566;48.414;9.118;2023-02-17T13:23:43;4.25;;;1.83;;
1154;SDS011;566;48.414;9.118;2023-02-17T13:28:49;2.85;;;1.40;;
1154;SDS011;566;48.414;9.118;2023-02-17T13:31:24;3.25;;;1.40;;
1154;SDS011;566;48.414;9.118;2023-02-17T13:33:51;3.65;;;1.20;;
1154;SDS011;566;48.414;9.118;2023-02-17T13:36:21;4.20;;;1.50;;
1154;SDS011;566;48.414;9.118;2023-02-17T13:41:24;3.50;;;1.73;;
1154;SDS011;566;48.414;9.118;2023-02-17T13:43:57;4.57;;;1.60;;
1154;SDS011;566;48.414;9.118;2023-02-17T13:46:24;5.47;;;1.77;;
1154;SDS011;566;48.414;9.118;2023-02-17T13:48:57;5.57;;;3.30;;
1154;SDS011;566;48.414;9.118;2023-02-17T13:51:25;4.32;;;1.52;;
1154;SDS011;566;48.414;9.118;2023-02-17T13:53:53;4.50;;;2.55;;
1154;SDS011;566;48.414;9.118;2023-02-17T13:56:23;3.72;;;1.80;;
1154;SDS011;566;48.414;9.118;2023-02-17T13:58:52;5.30;;;2.55;;
1154;SDS011;566;48.414;9.118;2023-02-17T14:01:19;4.30;;;1.70;;
1154;SDS011;566;48.414;9.118;2023-02-17T14:03:52;4.40;;;2.60;;
1154;SDS011;566;48.414;9.118;2023-02-17T14:09:18;6.03;;;3.05;;
1154;SDS011;566;48.414;9.118;2023-02-17T14:11:50;4.28;;;2.20;;
1154;SDS011;566;48.414;9.118;2023-02-17T14:14:17;4.07;;;2.05;;
1154;SDS011;566;48.414;9.118;2023-02-17T14:16:43;7.80;;;2.58;;
1154;SDS011;566;48.414;9.118;2023-02-17T14:19:13;5.28;;;1.98;;
1154;SDS011;566;48.414;9.118;2023-02-17T14:21:41;7.85;;;3.17;;
1154;SDS011;566;48.414;9.118;2023-02-17T14:24:22;5.30;;;2.38;;
1154;SDS011;566;48.414;9.118;2023-02-17T14:26:50;4.35;;;2.15;;
1154;SDS011;566;48.414;9.118;2023-02-17T14:29:21;9.38;;;3.13;;
1154;SDS011;566;48.414;9.118;2023-02-17T14:31:48;3.25;;;1.67;;
1154;SDS011;566;48.414;9.118;2023-02-17T14:34:28;3.08;;;1.60;;
1154;SDS011;566;48.414;9.118;2023-02-17T14:37:06;4.63;;;1.85;;
1154;SDS011;566;48.414;9.118;2023-02-17T14:39:42;8.75;;;3.30;;
1154;SDS011;566;48.414;9.118;2023-02-17T14:42:07;8.10;;;4.40;;
1154;SDS011;566;48.414;9.118;2023-02-17T14:44:36;2.78;;;1.35;;
1154;SDS011;566;48.414;9.118;2023-02-17T14:47:02;4.15;;;1.60;;
1154;SDS011;566;48.414;9.118;2023-02-17T14:49:28;4.15;;;1.92;;
1154;SDS011;566;48.414;9.118;2023-02-17T14:51:54;4.43;;;2.03;;
1154;SDS011;566;48.414;9.118;2023-02-17T14:54:20;4.05;;;1.40;;
1154;SDS011;566;48.414;9.118;2023-02-17T14:57:10;3.40;;;1.30;;
1154;SDS011;566;48.414;9.118;2023-02-17T14:59:36;3.28;;;1.58;;
1154;SDS011;566;48.414;9.118;2023-02-17T15:02:02;3.50;;;1.20;;
1154;SDS011;566;48.414;9.118;2023-02-17T15:04:27;5.57;;;2.03;;
1154;SDS011;566;48.414;9.118;2023-02-17T15:06:53;3.08;;;1.40;;
1154;SDS011;566;48.414;9.118;2023-02-17T15:09:19;4.18;;;1.35;;
1154;SDS011;566;48.414;9.118;2023-02-17T15:11:52;4.20;;;1.30;;
1154;SDS011;566;48.414;9.118;2023-02-17T15:14:18;2.50;;;1.15;;
1154;SDS011;566;48.414;9.118;2023-02-17T15:16:45;5.05;;;2.35;;
1154;SDS011;566;48.414;9.118;2023-02-17T15:19:13;2.67;;;1.20;;
1154;SDS011;566;48.414;9.118;2023-02-17T15:21:43;9.00;;;3.67;;
1154;SDS011;566;48.414;9.118;2023-02-17T15:24:19;3.15;;;1.30;;
1154;SDS011;566;48.414;9.118;2023-02-17T15:27:03;4.43;;;2.10;;
1154;SDS011;566;48.414;9.118;2023-02-17T15:29:31;5.03;;;2.47;;
1154;SDS011;566;48.414;9.118;2023-02-17T15:32:00;4.00;;;1.40;;
1154;SDS011;566;48.414;9.118;2023-02-17T15:34:31;4.65;;;1.42;;
1154;SDS011;566;48.414;9.118;2023-02-17T15:36:58;4.60;;;1.60;;
1154;SDS011;566;48.414;9.118;2023-02-17T15:39:25;3.53;;;1.60;;
1154;SDS011;566;48.414;9.118;2023-02-17T15:41:51;4.50;;;1.90;;
1154;SDS011;566;48.414;9.118;2023-02-17T15:44:19;4.10;;;1.27;;
1154;SDS011;566;48.414;9.118;2023-02-17T15:46:51;3.83;;;1.60;;
1154;SDS011;566;48.414;9.118;2023-02-17T15:49:19;2.92;;;1.30;;
1154;SDS011;566;48.414;9.118;2023-02-17T15:51:45;4.80;;;1.45;;
1154;SDS011;566;48.414;9.118;2023-02-17T15:54:11;2.42;;;1.10;;
1154;SDS011;566;48.414;9.118;2023-02-17T15:56:48;4.88;;;1.90;;
1154;SDS011;566;48.414;9.118;2023-02-17T15:59:16;3.10;;;1.20;;
1154;SDS011;566;48.414;9.118;2023-02-17T16:01:47;3.35;;;1.40;;
1154;SDS011;566;48.414;9.118;2023-02-17T16:04:15;2.97;;;1.20;;
1154;SDS011;566;48.414;9.118;2023-02-17T16:06:41;2.97;;;1.20;;
1154;SDS011;566;48.414;9.118;2023-02-17T16:09:07;2.10;;;1.30;;
1154;SDS011;566;48.414;9.118;2023-02-17T16:11:34;2.80;;;1.10;;
1154;SDS011;566;48.414;9.118;2023-02-17T16:14:01;6.50;;;2.42;;
1154;SDS011;566;48.414;9.118;2023-02-17T16:16:28;5.75;;;1.50;;
1154;SDS011;566;48.414;9.118;2023-02-17T16:19:00;3.20;;;1.58;;
1154;SDS011;566;48.414;9.118;2023-02-17T16:21:28;5.22;;;2.05;;
1154;SDS011;566;48.414;9.118;2023-02-17T16:23:54;5.05;;;2.47;;
1154;SDS011;566;48.414;9.118;2023-02-17T16:26:26;2.72;;;1.20;;
1154;SDS011;566;48.414;9.118;2023-02-17T16:28:55;3.92;;;1.45;;
1154;SDS011;566;48.414;9.118;2023-02-17T16:31:21;8.13;;;3.60;;
1154;SDS011;566;48.414;9.118;2023-02-17T16:33:47;9.98;;;4.85;;
1154;SDS011;566;48.414;9.118;2023-02-17T16:36:14;7.43;;;2.90;;
1154;SDS011;566;48.414;9.118;2023-02-17T16:38:43;3.85;;;1.58;;
1154;SDS011;566;48.414;9.118;2023-02-17T16:41:11;5.22;;;2.42;;
1154;SDS011;566;48.414;9.118;2023-02-17T16:43:38;5.00;;;1.83;;
1154;SDS011;566;48.414;9.118;2023-02-17T16:46:09;4.22;;;1.75;;
1154;SDS011;566;48.414;9.118;2023-02-17T16:48:49;2.03;;;1.05;;
1154;SDS011;566;48.414;9.118;2023-02-17T16:51:15;3.45;;;1.20;;
1154;SDS011;566;48.414;9.118;2023-02-17T16:53:40;2.55;;;1.15;;
1154;SDS011;566;48.414;9.118;2023-02-17T16:56:12;4.82;;;3.10;;
1154;SDS011;566;48.414;9.118;2023-02-17T16:58:41;4.72;;;1.55;;
1154;SDS011;566;48.414;9.118;2023-02-17T17:01:09;6.60;;;2.83;;
1154;SDS011;566;48.414;9.118;2023-02-17T17:03:39;4.38;;;2.42;;
1154;SDS011;566;48.414;9.118;2023-02-17T17:06:22;4.70;;;2.03;;
1154;SDS011;566;48.414;9.118;2023-02-17T17:08:50;2.30;;;1.10;;
1154;SDS011;566;48.414;9.118;2023-02-17T17:11:18;3.42;;;1.55;;